createdAt,value
2018-06-29T00:00:59.553Z,76.39
2018-06-29T00:02:09.259Z,76.67
2018-06-29T00:03:19.225Z,76.48
2018-06-29T00:04:28.681Z,76.29
2018-06-29T00:05:38.646Z,76.15
2018-06-29T00:06:48.368Z,77.01
2018-06-29T00:07:58.469Z,76.15
2018-06-29T00:09:08.431Z,77.01
2018-06-29T00:10:18.144Z,77.01
2018-06-29T00:11:27.331Z,76.73
2018-06-29T00:12:37.297Z,76.82
2018-06-29T00:13:47.015Z,77.11
2018-06-29T00:14:57.125Z,77.11
2018-06-29T00:16:07.101Z,77.5
2018-06-29T00:17:17.084Z,77.69
2018-06-29T00:18:27.047Z,77.69
2018-06-29T00:19:37.015Z,77.78
2018-06-29T00:20:46.997Z,78.08
2018-06-29T00:21:56.745Z,77.98
2018-06-29T00:23:06.701Z,78.36
2018-06-29T00:24:16.409Z,78.08
2018-06-29T00:25:26.377Z,78.75
2018-06-29T00:26:36.097Z,78.36
2018-06-29T00:27:46.086Z,78.55
2018-06-29T00:28:56.252Z,78.75
2018-06-29T00:30:06.228Z,79.03
2018-06-29T00:31:16.103Z,78.94
2018-06-29T00:32:25.385Z,79.03
2018-06-29T00:33:35.347Z,78.75
2018-06-29T00:34:45.334Z,78.84
2018-06-29T00:35:55.311Z,78.8
2018-06-29T00:37:05.027Z,79.38
2018-06-29T00:38:14.992Z,79.03
2018-06-29T00:39:24.437Z,79.38
2018-06-29T00:40:33.900Z,79.47
2018-06-29T00:41:43.868Z,79.67
2018-06-29T00:42:53.568Z,79.57
2018-06-29T00:44:03.280Z,79.67
2018-06-29T00:45:13.254Z,79.47
2018-06-29T00:46:23.224Z,79.57
2018-06-29T00:47:33.202Z,79.76
2018-06-29T00:48:42.921Z,79.76
2018-06-29T00:49:52.380Z,80.15
2018-06-29T00:51:02.088Z,80.15
2018-06-29T00:52:12.123Z,80.24
2018-06-29T00:53:22.189Z,80.24
2018-06-29T00:54:31.952Z,80.15
2018-06-29T00:55:41.970Z,80.63
2018-06-29T00:56:51.952Z,81.1
2018-06-29T00:58:01.655Z,81.1
2018-06-29T00:59:11.624Z,80.82
2018-06-29T01:00:21.612Z,80.73
2018-06-29T01:01:31.584Z,81.49
2018-06-29T01:02:41.540Z,81.4
2018-06-29T01:03:51.238Z,81.2
2018-06-29T01:05:01.215Z,81.59
2018-06-29T01:06:11.195Z,81.49
2018-06-29T01:07:21.154Z,81.87
2018-06-29T01:08:31.123Z,81.59
2018-06-29T01:09:40.844Z,81.87
2018-06-29T01:10:50.814Z,81.78
2018-06-29T01:12:00.814Z,81.74
2018-06-29T01:13:10.806Z,81.45
2018-06-29T01:14:20.780Z,82.21
2018-06-29T01:15:30.794Z,81.74
2018-06-29T01:16:40.493Z,81.97
2018-06-29T01:17:50.458Z,82.26
2018-06-29T01:19:00.163Z,81.59
2018-06-29T01:20:09.870Z,81.54
2018-06-29T01:21:19.838Z,81.54
2018-06-29T01:22:29.607Z,82.21
2018-06-29T01:23:39.332Z,82.03
2018-06-29T01:24:49.039Z,82.12
2018-06-29T01:25:59.045Z,82.35
2018-06-29T01:27:09.001Z,81.93
2018-06-29T01:28:18.975Z,82.03
2018-06-29T01:29:28.961Z,82.03
2018-06-29T01:30:38.932Z,81.74
2018-06-29T01:31:48.905Z,81.93
2018-06-29T01:32:58.867Z,81.97
2018-06-29T01:34:08.829Z,81.84
2018-06-29T01:35:18.788Z,82.21
2018-06-29T01:36:28.753Z,82.31
2018-06-29T01:37:38.728Z,82.31
2018-06-29T01:38:48.696Z,82.31
2018-06-29T01:39:58.650Z,82.21
2018-06-29T01:41:08.618Z,82.41
2018-06-29T01:42:18.651Z,82.41
2018-06-29T01:43:28.632Z,82.41
2018-06-29T01:44:38.601Z,82.12
2018-06-29T01:45:48.612Z,82.31
2018-06-29T01:46:58.589Z,82.31
2018-06-29T01:48:08.547Z,82.12
2018-06-29T01:49:18.525Z,82.12
2018-06-29T01:50:28.503Z,82.6
2018-06-29T01:51:38.209Z,82.79
2018-06-29T01:52:47.925Z,82.7
2018-06-29T01:53:57.917Z,82.7
2018-06-29T01:55:07.652Z,83.18
2018-06-29T01:56:17.637Z,82.6
2018-06-29T01:57:27.604Z,83.08
2018-06-29T01:58:37.566Z,82.98
2018-06-29T01:59:47.277Z,82.7
2018-06-29T02:00:57.235Z,83.08
2018-06-29T02:02:07.204Z,83.18
2018-06-29T02:03:17.172Z,82.41
2018-06-29T02:04:27.209Z,82.31
2018-06-29T02:05:37.179Z,82.6
2018-06-29T02:06:47.146Z,82.7
2018-06-29T02:07:57.194Z,82.7
2018-06-29T02:09:07.408Z,82.79
2018-06-29T02:10:17.373Z,82.6
2018-06-29T02:11:27.344Z,83.08
2018-06-29T02:12:37.311Z,83.27
2018-06-29T02:13:47.292Z,82.79
2018-06-29T02:14:57.002Z,82.79
2018-06-29T02:16:06.449Z,83.47
2018-06-29T02:17:16.440Z,83.27
2018-06-29T02:18:26.144Z,82.98
2018-06-29T02:19:35.864Z,83.56
2018-06-29T02:20:45.829Z,83.14
2018-06-29T02:21:55.790Z,83.52
2018-06-29T02:23:05.499Z,83.42
2018-06-29T02:24:15.469Z,83.94
2018-06-29T02:25:25.446Z,83.52
2018-06-29T02:26:35.405Z,84
2018-06-29T02:27:45.567Z,83.91
2018-06-29T02:28:55.347Z,83.75
2018-06-29T02:30:05.305Z,84
2018-06-29T02:31:15.015Z,83.52
2018-06-29T02:32:24.463Z,83.61
2018-06-29T02:33:34.175Z,83.91
2018-06-29T02:34:44.145Z,83.42
2018-06-29T02:35:54.105Z,83.18
2018-06-29T02:37:04.074Z,83.52
2018-06-29T02:38:14.049Z,83.42
2018-06-29T02:39:23.754Z,83.52
2018-06-29T02:40:33.461Z,83.23
2018-06-29T02:41:43.449Z,83.23
2018-06-29T02:42:53.476Z,83.42
2018-06-29T02:44:03.445Z,83.04
2018-06-29T02:45:13.416Z,82.94
2018-06-29T02:46:23.370Z,82.94
2018-06-29T02:47:33.069Z,82.65
2018-06-29T02:48:43.024Z,83.14
2018-06-29T02:49:53.005Z,82.75
2018-06-29T02:51:02.985Z,82.85
2018-06-29T02:52:13.000Z,83.14
2018-06-29T02:53:22.703Z,83.04
2018-06-29T02:54:32.700Z,82.75
2018-06-29T02:55:42.404Z,82.75
2018-06-29T02:56:52.383Z,82.56
2018-06-29T02:58:02.098Z,82.56
2018-06-29T02:59:12.217Z,82.85
2018-06-29T03:00:22.199Z,82.65
2018-06-29T03:01:31.936Z,82.65
2018-06-29T03:02:41.915Z,82.46
2018-06-29T03:03:51.891Z,82.75
2018-06-29T03:05:01.600Z,82.46
2018-06-29T03:06:11.594Z,82.37
2018-06-29T03:07:21.564Z,82.65
2018-06-29T03:08:31.287Z,82.18
2018-06-29T03:09:41.260Z,82.37
2018-06-29T03:10:51.017Z,82.18
2018-06-29T03:12:00.988Z,82.27
2018-06-29T03:13:10.957Z,82.18
2018-06-29T03:14:20.944Z,81.98
2018-06-29T03:15:30.923Z,81.7
2018-06-29T03:16:40.897Z,82.27
2018-06-29T03:17:50.619Z,82.08
2018-06-29T03:19:00.585Z,82.18
2018-06-29T03:20:10.556Z,81.79
2018-06-29T03:21:20.530Z,81.7
2018-06-29T03:22:30.483Z,82.08
2018-06-29T03:23:40.179Z,81.6
2018-06-29T03:24:50.131Z,81.6
2018-06-29T03:26:00.095Z,82.37
2018-06-29T03:27:09.824Z,81.98
2018-06-29T03:28:19.781Z,81.7
2018-06-29T03:29:29.747Z,81.7
2018-06-29T03:30:39.725Z,82.37
2018-06-29T03:31:49.687Z,82.08
2018-06-29T03:32:59.465Z,81.6
2018-06-29T03:34:09.392Z,81.79
2018-06-29T03:35:19.094Z,81.89
2018-06-29T03:36:29.056Z,82.18
2018-06-29T03:37:38.760Z,81.51
2018-06-29T03:38:48.742Z,81.22
2018-06-29T03:39:58.708Z,81.51
2018-06-29T03:41:08.687Z,80.93
2018-06-29T03:42:18.649Z,80.55
2018-06-29T03:43:28.623Z,80.74
2018-06-29T03:44:38.596Z,80.07
2018-06-29T03:45:48.328Z,80.55
2018-06-29T03:46:58.290Z,80.4
2018-06-29T03:48:08.281Z,80.45
2018-06-29T03:49:18.246Z,79.59
2018-06-29T03:50:28.386Z,79.11
2018-06-29T03:51:38.344Z,78.86
2018-06-29T03:52:48.323Z,78.77
2018-06-29T03:53:58.289Z,78.72
2018-06-29T03:55:07.996Z,78.96
2018-06-29T03:56:17.959Z,78.38
2018-06-29T03:57:27.922Z,78.96
2018-06-29T03:58:37.887Z,78.38
2018-06-29T03:59:47.861Z,77.9
2018-06-29T04:00:57.827Z,77.9
2018-06-29T04:02:07.805Z,77.9
2018-06-29T04:03:17.859Z,77.33
2018-06-29T04:04:28.256Z,78
2018-06-29T04:05:38.232Z,77.42
2018-06-29T04:06:47.951Z,76.94
2018-06-29T04:07:57.934Z,77.51
2018-06-29T04:09:07.648Z,77.61
2018-06-29T04:10:17.616Z,76.75
2018-06-29T04:11:27.581Z,77.23
2018-06-29T04:12:37.551Z,77.13
2018-06-29T04:13:47.507Z,77.23
2018-06-29T04:14:57.468Z,76.65
2018-06-29T04:16:07.431Z,77.33
2018-06-29T04:17:17.398Z,77.33
2018-06-29T04:18:27.101Z,77.04
2018-06-29T04:19:37.066Z,76.94
2018-06-29T04:20:47.034Z,76.56
2018-06-29T04:21:56.997Z,76.88
2018-06-29T04:23:06.968Z,76.5
2018-06-29T04:24:16.695Z,76.5
2018-06-29T04:25:26.684Z,76.5
2018-06-29T04:26:36.778Z,76.4
2018-06-29T04:27:46.582Z,76.4
2018-06-29T04:28:56.285Z,77.08
2018-06-29T04:30:06.013Z,76.69
2018-06-29T04:31:15.722Z,76.98
2018-06-29T04:32:25.682Z,77.17
2018-06-29T04:33:35.691Z,76.98
2018-06-29T04:34:45.654Z,76.98
2018-06-29T04:35:55.120Z,76.98
2018-06-29T04:37:04.836Z,76.88
2018-06-29T04:38:14.554Z,77.11
2018-06-29T04:39:24.270Z,76.73
2018-06-29T04:40:34.249Z,76.54
2018-06-29T04:41:43.950Z,76.06
2018-06-29T04:42:53.919Z,75.96
2018-06-29T04:44:03.989Z,75.96
2018-06-29T04:45:13.969Z,75.67
2018-06-29T04:46:23.676Z,75.1
2018-06-29T04:47:33.650Z,75.67
2018-06-29T04:48:43.618Z,75.57
2018-06-29T04:49:53.580Z,75.29
2018-06-29T04:51:03.288Z,74.9
2018-06-29T04:52:13.264Z,74.62
2018-06-29T04:53:22.891Z,74.81
2018-06-29T04:54:33.004Z,75.2
2018-06-29T04:55:42.717Z,75.42
2018-06-29T04:56:52.686Z,75.23
2018-06-29T04:58:02.650Z,75.23
2018-06-29T04:59:12.633Z,75.32
2018-06-29T05:00:22.702Z,75.32
2018-06-29T05:01:32.683Z,75.13
2018-06-29T05:02:42.392Z,75.32
2018-06-29T05:03:52.367Z,74.75
2018-06-29T05:05:02.340Z,75.04
2018-06-29T05:06:12.318Z,74.55
2018-06-29T05:07:22.272Z,74.08
2018-06-29T05:08:31.979Z,74.17
2018-06-29T05:09:41.952Z,74.3
2018-06-29T05:10:51.669Z,74.37
2018-06-29T05:12:01.385Z,73.88
2018-06-29T05:13:11.087Z,74.46
2018-06-29T05:14:20.797Z,74.3
2018-06-29T05:15:30.620Z,74.79
2018-06-29T05:16:40.595Z,74.5
2018-06-29T05:17:50.557Z,74.27
2018-06-29T05:19:00.275Z,74.5
2018-06-29T05:20:10.286Z,74.79
2018-06-29T05:21:19.989Z,74.6
2018-06-29T05:22:29.960Z,74.6
2018-06-29T05:23:39.933Z,74.02
2018-06-29T05:24:49.905Z,74.02
2018-06-29T05:25:59.883Z,74.11
2018-06-29T05:27:09.611Z,74.69
2018-06-29T05:28:19.590Z,74.69
2018-06-29T05:29:29.552Z,74.69
2018-06-29T05:30:39.263Z,74.4
2018-06-29T05:31:49.230Z,74.21
2018-06-29T05:32:59.196Z,74.4
2018-06-29T05:34:09.180Z,74.11
2018-06-29T05:35:18.904Z,74.5
2018-06-29T05:36:28.886Z,74.4
2018-06-29T05:37:38.618Z,74.63
2018-06-29T05:38:48.580Z,74.15
2018-06-29T05:39:58.296Z,74.34
2018-06-29T05:41:08.277Z,74.82
2018-06-29T05:42:17.995Z,74.05
2018-06-29T05:43:27.975Z,73.96
2018-06-29T05:44:37.965Z,74.05
2018-06-29T05:45:47.973Z,73.96
2018-06-29T05:46:57.727Z,73.71
2018-06-29T05:48:08.097Z,73.9
2018-06-29T05:49:17.954Z,73.32
2018-06-29T05:50:27.775Z,72.94
2018-06-29T05:51:37.486Z,72.65
2018-06-29T05:52:47.557Z,73.61
2018-06-29T05:53:57.527Z,73.32
2018-06-29T05:55:07.507Z,72.94
2018-06-29T05:56:17.485Z,73.22
2018-06-29T05:57:27.296Z,72.26
2018-06-29T05:58:37.643Z,72.65
2018-06-29T05:59:47.365Z,72.45
2018-06-29T06:00:57.092Z,72.65
2018-06-29T06:02:06.850Z,72.17
2018-06-29T06:03:16.447Z,72.2
2018-06-29T06:04:26.433Z,72.01
2018-06-29T06:05:36.531Z,71.81
2018-06-29T06:06:46.262Z,71.62
2018-06-29T06:07:56.264Z,71.14
2018-06-29T06:09:06.238Z,70.86
2018-06-29T06:10:16.389Z,71.04
2018-06-29T06:11:26.132Z,71.14
2018-06-29T06:12:36.102Z,70.86
2018-06-29T06:13:45.821Z,70.76
2018-06-29T06:14:55.829Z,70.7
2018-06-29T06:16:06.034Z,71.14
2018-06-29T06:17:16.450Z,71.18
2018-06-29T06:18:26.435Z,70.98
2018-06-29T06:19:36.433Z,70.7
2018-06-29T06:20:46.151Z,70.6
2018-06-29T06:21:56.055Z,70.41
2018-06-29T06:23:06.346Z,70.98
2018-06-29T06:24:16.316Z,70.7
2018-06-29T06:25:26.023Z,70.12
2018-06-29T06:26:35.743Z,70.15
2018-06-29T06:27:45.986Z,69.87
2018-06-29T06:28:55.974Z,69.48
2018-06-29T06:30:05.683Z,68.9
2018-06-29T06:31:15.652Z,69.48
2018-06-29T06:32:25.645Z,69.48
2018-06-29T06:33:35.631Z,69.29
2018-06-29T06:34:45.620Z,68.9
2018-06-29T06:35:55.604Z,69.61
2018-06-29T06:37:05.344Z,68.23
2018-06-29T06:38:15.328Z,67.49
2018-06-29T06:39:25.044Z,67.78
2018-06-29T06:40:35.010Z,67.78
2018-06-29T06:41:45.255Z,67.88
2018-06-29T06:42:55.256Z,67.78
2018-06-29T06:44:04.987Z,67.1
2018-06-29T06:45:14.965Z,67
2018-06-29T06:46:24.690Z,67
2018-06-29T06:47:34.418Z,66.62
2018-06-29T06:48:44.413Z,66.66
2018-06-29T06:49:54.408Z,66.27
2018-06-29T06:51:04.398Z,66.66
2018-06-29T06:52:14.138Z,66.94
2018-06-29T06:53:24.148Z,67.33
2018-06-29T06:54:33.917Z,66.46
2018-06-29T06:55:43.682Z,66.36
2018-06-29T06:56:53.729Z,67.04
2018-06-29T06:58:03.713Z,66.66
2018-06-29T06:59:13.164Z,66.27
2018-06-29T07:00:23.194Z,65.82
2018-06-29T07:01:32.913Z,66.2
2018-06-29T07:02:42.631Z,65.05
2018-06-29T07:03:52.645Z,64.95
2018-06-29T07:05:02.388Z,65.43
2018-06-29T07:06:12.374Z,65.43
2018-06-29T07:07:22.360Z,65.82
2018-06-29T07:08:32.359Z,64.66
2018-06-29T07:09:42.357Z,64.56
2018-06-29T07:10:52.339Z,64.66
2018-06-29T07:12:02.328Z,64.37
2018-06-29T07:13:12.359Z,65.43
2018-06-29T07:14:22.364Z,65.43
2018-06-29T07:15:32.095Z,65.56
2018-06-29T07:16:42.113Z,64.89
2018-06-29T07:17:51.835Z,63.92
2018-06-29T07:19:01.824Z,64.21
2018-06-29T07:20:11.829Z,63.92
2018-06-29T07:21:21.567Z,63.43
2018-06-29T07:22:31.375Z,63.43
2018-06-29T07:23:41.372Z,63.43
2018-06-29T07:24:51.375Z,62.76
2018-06-29T07:26:01.355Z,63.34
2018-06-29T07:27:11.316Z,62.57
2018-06-29T07:28:21.048Z,63.05
2018-06-29T07:29:31.028Z,63.05
2018-06-29T07:30:40.765Z,63.24
2018-06-29T07:31:50.759Z,63.08
2018-06-29T07:33:00.745Z,63.08
2018-06-29T07:34:10.737Z,62.98
2018-06-29T07:35:20.477Z,62.7
2018-06-29T07:36:30.533Z,62.5
2018-06-29T07:37:40.258Z,62.21
2018-06-29T07:38:50.012Z,62.6
2018-06-29T07:40:00.000Z,62.89
2018-06-29T07:41:10.029Z,61.34
2018-06-29T07:42:20.030Z,62.12
2018-06-29T07:43:30.026Z,62.02
2018-06-29T07:44:39.762Z,61.92
2018-06-29T07:45:49.474Z,62.02
2018-06-29T07:46:59.196Z,62.15
2018-06-29T07:48:09.225Z,61.76
2018-06-29T07:49:18.947Z,61.37
2018-06-29T07:50:28.669Z,61.27
2018-06-29T07:51:38.680Z,61.57
2018-06-29T07:52:48.751Z,61.27
2018-06-29T07:53:59.013Z,60.82
2018-06-29T07:55:08.786Z,60.24
2018-06-29T07:56:18.858Z,59.76
2018-06-29T07:57:29.071Z,60.6
2018-06-29T07:58:39.288Z,59.63
2018-06-29T07:59:49.858Z,59.73
2018-06-29T08:00:59.356Z,60.24
2018-06-29T08:02:09.365Z,59.28
2018-06-29T08:03:19.389Z,58.7
2018-06-29T08:04:29.385Z,58.21
2018-06-29T08:05:38.869Z,58.98
2018-06-29T08:06:48.882Z,58.31
2018-06-29T08:07:58.906Z,57.46
2018-06-29T08:09:08.632Z,57.56
2018-06-29T08:10:18.607Z,57.08
2018-06-29T08:11:28.319Z,56.88
2018-06-29T08:12:38.301Z,56.6
2018-06-29T08:13:48.039Z,55.56
2018-06-29T08:14:58.011Z,55.76
2018-06-29T08:16:07.745Z,55.2
2018-06-29T08:17:17.459Z,55.98
2018-06-29T08:18:27.183Z,55
2018-06-29T08:19:36.904Z,55
2018-06-29T08:20:46.623Z,53.87
2018-06-29T08:21:56.586Z,53.36
2018-06-29T08:23:06.072Z,54.33
2018-06-29T08:24:15.840Z,53.94
2018-06-29T08:25:25.972Z,54.71
2018-06-29T08:26:35.183Z,54.13
2018-06-29T08:27:45.192Z,54.52
2018-06-29T08:28:55.162Z,54.03
2018-06-29T08:30:05.023Z,54.16
2018-06-29T08:31:14.983Z,54.43
2018-06-29T08:32:24.955Z,53.26
2018-06-29T08:33:34.666Z,52.8
2018-06-29T08:34:44.407Z,52.61
2018-06-29T08:35:54.120Z,52.12
2018-06-29T08:37:04.084Z,51.84
2018-06-29T08:38:14.049Z,51.67
2018-06-29T08:39:24.032Z,51.37
2018-06-29T08:40:34.041Z,51.31
2018-06-29T08:41:44.017Z,50.53
2018-06-29T08:42:53.991Z,51.11
2018-06-29T08:44:03.707Z,49.77
2018-06-29T08:45:13.840Z,50.16
2018-06-29T08:46:23.574Z,48.8
2018-06-29T08:47:33.302Z,48.13
2018-06-29T08:48:43.296Z,47.66
2018-06-29T08:49:52.762Z,46.41
2018-06-29T08:51:02.777Z,46.98
2018-06-29T08:52:12.860Z,46.81
2018-06-29T08:53:22.893Z,47.01
2018-06-29T08:54:32.612Z,44.99
2018-06-29T08:55:42.599Z,44.72
2018-06-29T08:56:52.580Z,45.23
2018-06-29T08:58:02.303Z,44.84
2018-06-29T08:59:12.019Z,43.43
2018-06-29T09:00:21.806Z,42.57
2018-06-29T09:01:31.796Z,42
2018-06-29T09:02:41.550Z,39.1
2018-06-29T09:03:51.552Z,39.98
2018-06-29T09:05:01.635Z,38.73
2018-06-29T09:06:11.799Z,38.63
2018-06-29T09:07:21.785Z,38.18
2018-06-29T09:08:31.763Z,38.09
2018-06-29T09:09:41.800Z,38.49
2018-06-29T09:10:51.035Z,37.93
2018-06-29T09:12:01.172Z,38.1
2018-06-29T09:13:11.162Z,37.12
2018-06-29T09:14:21.145Z,38.18
2018-06-29T09:15:30.942Z,38.55
2018-06-29T09:16:40.932Z,38.75
2018-06-29T09:17:50.914Z,37.6
2018-06-29T09:19:00.731Z,37.87
2018-06-29T09:20:10.883Z,38.35
2018-06-29T09:21:20.905Z,38.14
2018-06-29T09:22:30.930Z,38.14
2018-06-29T09:23:40.675Z,37.46
2018-06-29T09:24:50.700Z,38.24
2018-06-29T09:26:00.219Z,38.35
2018-06-29T09:27:10.209Z,38.45
2018-06-29T09:28:19.944Z,38.16
2018-06-29T09:29:29.945Z,37.38
2018-06-29T09:30:39.956Z,37.6
2018-06-29T09:31:49.950Z,37.62
2018-06-29T09:32:59.963Z,36.93
2018-06-29T09:34:09.977Z,35.87
2018-06-29T09:35:19.738Z,34.97
2018-06-29T09:36:29.591Z,33.82
2018-06-29T09:37:39.582Z,32.37
2018-06-29T09:38:49.332Z,31.91
2018-06-29T09:39:59.337Z,31.91
2018-06-29T09:41:09.069Z,31.54
2018-06-29T09:42:18.805Z,31.55
2018-06-29T09:43:28.861Z,32.51
2018-06-29T09:44:38.881Z,32.34
2018-06-29T09:45:48.883Z,32.34
2018-06-29T09:46:58.884Z,32.53
2018-06-29T09:48:09.530Z,31.86
2018-06-29T09:49:19.767Z,31.29
2018-06-29T09:50:29.783Z,31.77
2018-06-29T09:51:39.768Z,31.2
2018-06-29T09:52:49.827Z,31.01
2018-06-29T09:53:59.916Z,30.62
2018-06-29T09:55:10.388Z,31.5
2018-06-29T09:56:20.123Z,32.64
2018-06-29T09:57:29.906Z,33.95
2018-06-29T09:58:39.659Z,34.97
2018-06-29T09:59:49.715Z,35.84
2018-06-29T10:00:59.549Z,35.72
2018-06-29T10:02:09.498Z,35.63
2018-06-29T10:03:19.564Z,35.63
2018-06-29T10:04:29.575Z,35.84
2018-06-29T10:05:39.581Z,35.64
2018-06-29T10:06:49.579Z,35.74
2018-06-29T10:07:59.587Z,35.84
2018-06-29T10:09:09.348Z,35.94
2018-06-29T10:10:19.365Z,36.51
2018-06-29T10:11:29.357Z,36.7
2018-06-29T10:12:39.344Z,36.6
2018-06-29T10:13:49.070Z,36.82
2018-06-29T10:14:59.060Z,35.84
2018-06-29T10:16:09.056Z,35.07
2018-06-29T10:17:18.538Z,35.17
2018-06-29T10:18:28.543Z,35.68
2018-06-29T10:19:38.609Z,35.17
2018-06-29T10:20:49.281Z,34.89
2018-06-29T10:21:59.262Z,34.74
2018-06-29T10:23:09.396Z,33.38
2018-06-29T10:24:19.479Z,33.39
2018-06-29T10:25:29.909Z,33.39
2018-06-29T10:26:40.361Z,32.81
2018-06-29T10:27:50.200Z,33.5
2018-06-29T10:29:00.300Z,33.67
2018-06-29T10:30:10.315Z,33.48
2018-06-29T10:31:19.804Z,33.75
2018-06-29T10:32:29.822Z,33.56
2018-06-29T10:33:39.820Z,33.56
2018-06-29T10:34:49.867Z,33.45
2018-06-29T10:35:59.732Z,33.75
2018-06-29T10:37:09.603Z,33.67
2018-06-29T10:38:19.644Z,33.85
2018-06-29T10:39:29.707Z,33.38
2018-06-29T10:40:39.461Z,33.97
2018-06-29T10:41:49.196Z,34.05
2018-06-29T10:42:59.189Z,32.37
2018-06-29T10:44:09.177Z,32.95
2018-06-29T10:45:19.185Z,32.45
2018-06-29T10:46:29.180Z,32.92
2018-06-29T10:47:39.444Z,33.22
2018-06-29T10:48:49.186Z,32.04
2018-06-29T10:49:59.165Z,32.45
2018-06-29T10:51:09.161Z,32.53
2018-06-29T10:52:19.173Z,32.43
2018-06-29T10:53:28.952Z,32.37
2018-06-29T10:54:38.695Z,31.9
2018-06-29T10:55:48.722Z,31.03
2018-06-29T10:56:58.475Z,31.8
2018-06-29T10:58:08.468Z,31.9
2018-06-29T10:59:18.465Z,31.62
2018-06-29T11:00:28.492Z,31.13
2018-06-29T11:01:38.486Z,30.55
2018-06-29T11:02:48.494Z,29.88
2018-06-29T11:03:58.242Z,29.6
2018-06-29T11:05:08.253Z,28.64
2018-06-29T11:06:18.246Z,29.69
2018-06-29T11:07:28.247Z,29.77
2018-06-29T11:08:37.987Z,30.26
2018-06-29T11:09:47.985Z,29.39
2018-06-29T11:10:57.837Z,28.63
2018-06-29T11:12:08.097Z,28.74
2018-06-29T11:13:17.844Z,28.34
2018-06-29T11:14:27.861Z,27.87
2018-06-29T11:15:37.606Z,27.8
2018-06-29T11:16:47.597Z,27.12
2018-06-29T11:17:57.714Z,26.82
2018-06-29T11:19:07.446Z,26.85
2018-06-29T11:20:17.453Z,26.37
2018-06-29T11:21:27.220Z,26.29
2018-06-29T11:22:37.285Z,25.81
2018-06-29T11:23:47.649Z,24.84
2018-06-29T11:24:57.662Z,24.84
2018-06-29T11:26:07.417Z,25.52
2018-06-29T11:27:17.410Z,25.81
2018-06-29T11:28:27.401Z,26.1
2018-06-29T11:29:37.401Z,26.19
2018-06-29T11:30:47.439Z,26.35
2018-06-29T11:31:57.434Z,26.84
2018-06-29T11:33:07.444Z,26.45
2018-06-29T11:34:17.452Z,26.56
2018-06-29T11:35:27.442Z,26.08
2018-06-29T11:36:37.170Z,25.88
2018-06-29T11:37:47.337Z,25.78
2018-06-29T11:38:57.340Z,26.19
2018-06-29T11:40:07.095Z,25.79
2018-06-29T11:41:17.088Z,25.32
2018-06-29T11:42:27.153Z,25.31
2018-06-29T11:43:37.470Z,25.88
2018-06-29T11:44:47.218Z,26.85
2018-06-29T11:45:57.203Z,27.33
2018-06-29T11:47:06.658Z,27.8
2018-06-29T11:48:16.647Z,29.33
2018-06-29T11:49:26.653Z,29.88
2018-06-29T11:50:36.414Z,30.43
2018-06-29T11:51:46.422Z,31.2
2018-06-29T11:52:56.435Z,31
2018-06-29T11:54:06.432Z,31.1
2018-06-29T11:55:16.427Z,31.29
2018-06-29T11:56:26.173Z,31.2
2018-06-29T11:57:35.933Z,30.13
2018-06-29T11:58:45.949Z,31.21
2018-06-29T11:59:55.951Z,31.49
2018-06-29T12:01:05.686Z,32.56
2018-06-29T12:02:15.683Z,32.94
2018-06-29T12:03:25.668Z,33.72
2018-06-29T12:04:35.144Z,34.86
2018-06-29T12:05:45.133Z,35.71
2018-06-29T12:06:54.962Z,36.1
2018-06-29T12:08:04.699Z,35.98
2018-06-29T12:09:14.824Z,36.76
2018-06-29T12:10:24.821Z,36.76
2018-06-29T12:11:34.845Z,36.37
2018-06-29T12:12:44.833Z,36.19
2018-06-29T12:13:54.827Z,36.08
2018-06-29T12:15:04.818Z,36.86
2018-06-29T12:16:14.818Z,35.78
2018-06-29T12:17:24.820Z,36.49
2018-06-29T12:18:34.812Z,36.66
2018-06-29T12:19:44.801Z,35.71
2018-06-29T12:20:54.916Z,35.02
2018-06-29T12:22:04.696Z,34.86
2018-06-29T12:23:14.801Z,34.47
2018-06-29T12:24:25.014Z,33.41
2018-06-29T12:25:35.125Z,33.33
2018-06-29T12:26:45.265Z,32.29
2018-06-29T12:27:55.062Z,30.93
2018-06-29T12:29:05.436Z,30.39
2018-06-29T12:30:15.440Z,30.1
2018-06-29T12:31:25.425Z,30.67
2018-06-29T12:32:35.419Z,31.24
2018-06-29T12:33:45.604Z,31.24
2018-06-29T12:34:55.622Z,31.42
2018-06-29T12:36:05.620Z,32.09
2018-06-29T12:37:15.604Z,32.66
2018-06-29T12:38:25.326Z,32.37
2018-06-29T12:39:35.316Z,32.09
2018-06-29T12:40:45.037Z,31.6
2018-06-29T12:41:54.766Z,31.23
2018-06-29T12:43:04.505Z,30.94
2018-06-29T12:44:14.510Z,31.63
2018-06-29T12:45:24.232Z,31.8
2018-06-29T12:46:33.968Z,31.51
2018-06-29T12:47:43.721Z,31.98
2018-06-29T12:48:53.453Z,31.49
2018-06-29T12:50:03.455Z,30.13
2018-06-29T12:51:13.183Z,29.58
2018-06-29T12:52:23.188Z,29.18
2018-06-29T12:53:32.931Z,29.77
2018-06-29T12:54:42.919Z,29.77
2018-06-29T12:55:53.102Z,29.3
2018-06-29T12:57:03.364Z,28.53
2018-06-29T12:58:13.411Z,28.13
2018-06-29T12:59:23.411Z,28.61
2018-06-29T13:00:33.391Z,29.08
2018-06-29T13:01:43.160Z,29.36
2018-06-29T13:02:52.886Z,28.5
2018-06-29T13:04:02.896Z,27.73
2018-06-29T13:05:12.953Z,27.35
2018-06-29T13:06:23.052Z,27.36
2018-06-29T13:07:33.060Z,27.08
2018-06-29T13:08:43.063Z,28.13
2018-06-29T13:09:52.829Z,29.36
2018-06-29T13:11:02.590Z,28.97
2018-06-29T13:12:12.577Z,29.18
2018-06-29T13:13:22.051Z,29.07
2018-06-29T13:14:32.040Z,29.48
2018-06-29T13:15:41.790Z,29.36
2018-06-29T13:16:51.781Z,29.56
2018-06-29T13:18:01.757Z,28.71
2018-06-29T13:19:11.737Z,28.71
2018-06-29T13:20:21.732Z,28.23
2018-06-29T13:21:31.725Z,27.85
2018-06-29T13:22:41.733Z,27.95
2018-06-29T13:23:51.461Z,28.74
2018-06-29T13:25:01.787Z,28.71
2018-06-29T13:26:12.204Z,28.53
2018-06-29T13:27:22.214Z,29.39
2018-06-29T13:28:32.421Z,29.88
2018-06-29T13:29:42.478Z,29.79
2018-06-29T13:30:52.603Z,29.68
2018-06-29T13:32:02.804Z,30.13
2018-06-29T13:33:12.786Z,30.33
2018-06-29T13:34:22.790Z,30.04
2018-06-29T13:35:32.797Z,29.64
2018-06-29T13:36:42.766Z,29.85
2018-06-29T13:37:52.511Z,29.07
2018-06-29T13:39:02.000Z,28.4
2018-06-29T13:40:12.003Z,29.28
2018-06-29T13:41:22.007Z,29.38
2018-06-29T13:42:32.019Z,29.64
2018-06-29T13:43:41.741Z,30.32
2018-06-29T13:44:51.768Z,29.74
2018-06-29T13:46:01.514Z,29.64
2018-06-29T13:47:11.515Z,29.84
2018-06-29T13:48:21.254Z,29.45
2018-06-29T13:49:30.979Z,29.25
2018-06-29T13:50:40.977Z,28.67
2018-06-29T13:51:50.980Z,27.4
2018-06-29T13:53:00.957Z,27.24
2018-06-29T13:54:10.447Z,27.45
2018-06-29T13:55:20.433Z,26.96
2018-06-29T13:56:30.447Z,26.86
2018-06-29T13:57:40.179Z,26.84
2018-06-29T13:58:50.195Z,27.52
2018-06-29T14:00:00.192Z,27.4
2018-06-29T14:01:09.928Z,26.54
2018-06-29T14:02:19.676Z,25.98
2018-06-29T14:03:29.791Z,25.22
2018-06-29T14:04:39.781Z,24.65
2018-06-29T14:05:49.524Z,24.17
2018-06-29T14:06:58.993Z,23.69
2018-06-29T14:08:08.991Z,24.1
2018-06-29T14:09:18.976Z,23.61
2018-06-29T14:10:28.705Z,23.78
2018-06-29T14:11:38.681Z,24.75
2018-06-29T14:12:48.678Z,24.84
2018-06-29T14:13:58.693Z,24.16
2018-06-29T14:15:08.687Z,24.55
2018-06-29T14:16:18.410Z,23.67
2018-06-29T14:17:28.400Z,24.26
2018-06-29T14:18:38.144Z,24.27
2018-06-29T14:19:47.875Z,24.18
2018-06-29T14:20:57.353Z,24.75
2018-06-29T14:22:07.117Z,25.22
2018-06-29T14:23:16.848Z,25.89
2018-06-29T14:24:26.892Z,25.78
2018-06-29T14:25:36.880Z,25.79
2018-06-29T14:26:46.872Z,25.79
2018-06-29T14:27:56.871Z,26.38
2018-06-29T14:29:06.997Z,26.37
2018-06-29T14:30:16.202Z,26.27
2018-06-29T14:31:26.204Z,26.56
2018-06-29T14:32:35.674Z,26.86
2018-06-29T14:33:45.655Z,27.24
2018-06-29T14:34:55.397Z,27.23
2018-06-29T14:36:05.412Z,27.72
2018-06-29T14:37:15.135Z,27.91
2018-06-29T14:38:24.872Z,28.11
2018-06-29T14:39:34.867Z,28.59
2018-06-29T14:40:44.870Z,28.3
2018-06-29T14:41:54.945Z,28.5
2018-06-29T14:43:04.934Z,28.88
2018-06-29T14:44:14.673Z,29.17
2018-06-29T14:45:24.656Z,29.56
2018-06-29T14:46:34.800Z,29.66
2018-06-29T14:47:44.252Z,29.27
2018-06-29T14:48:54.225Z,29.56
2018-06-29T14:50:03.957Z,30.72
2018-06-29T14:51:13.945Z,31.28
2018-06-29T14:52:23.674Z,31.36
2018-06-29T14:53:33.679Z,30.96
2018-06-29T14:54:43.669Z,31.36
2018-06-29T14:55:53.647Z,31.07
2018-06-29T14:57:03.668Z,30.97
2018-06-29T14:58:13.389Z,30.38
2018-06-29T14:59:23.368Z,30.2
2018-06-29T15:00:33.370Z,30.2
2018-06-29T15:01:43.360Z,30.3
2018-06-29T15:02:53.172Z,30.12
2018-06-29T15:04:03.530Z,29.83
2018-06-29T15:05:13.521Z,29.66